sensor_id;sensor_type;location;lat;lon;timestamp;temperature;humidity
46816;DHT22;32787;53.316;8.670;2023-10-31T00:00:44;11.60;97.30
46816;DHT22;32787;53.316;8.670;2023-10-31T00:03:10;11.60;97.30
46816;DHT22;32787;53.316;8.670;2023-10-31T00:05:36;11.60;97.30
46816;DHT22;32787;53.316;8.670;2023-10-31T00:08:01;11.60;97.30
46816;DHT22;32787;53.316;8.670;2023-10-31T00:10:27;11.60;97.30
46816;DHT22;32787;53.316;8.670;2023-10-31T00:12:53;11.60;97.30
46816;DHT22;32787;53.316;8.670;2023-10-31T00:15:18;11.50;97.30
46816;DHT22;32787;53.316;8.670;2023-10-31T00:17:44;11.60;97.30
46816;DHT22;32787;53.316;8.670;2023-10-31T00:20:10;11.60;97.30
46816;DHT22;32787;53.316;8.670;2023-10-31T00:22:35;11.60;97.30
46816;DHT22;32787;53.316;8.670;2023-10-31T00:25:01;11.60;97.30
46816;DHT22;32787;53.316;8.670;2023-10-31T00:27:26;11.60;97.30
46816;DHT22;32787;53.316;8.670;2023-10-31T00:29:52;11.70;97.30
46816;DHT22;32787;53.316;8.670;2023-10-31T00:32:17;11.60;97.30
46816;DHT22;32787;53.316;8.670;2023-10-31T00:34:43;11.60;97.30
46816;DHT22;32787;53.316;8.670;2023-10-31T00:37:09;11.60;97.30
46816;DHT22;32787;53.316;8.670;2023-10-31T00:39:34;11.60;97.40
46816;DHT22;32787;53.316;8.670;2023-10-31T00:42:00;11.60;97.40
46816;DHT22;32787;53.316;8.670;2023-10-31T00:44:25;11.60;97.40
46816;DHT22;32787;53.316;8.670;2023-10-31T00:46:51;11.60;97.40
46816;DHT22;32787;53.316;8.670;2023-10-31T00:49:17;11.60;97.40
46816;DHT22;32787;53.316;8.670;2023-10-31T00:51:42;11.60;97.40
46816;DHT22;32787;53.316;8.670;2023-10-31T00:54:08;11.70;97.40
46816;DHT22;32787;53.316;8.670;2023-10-31T00:56:34;11.70;97.40
46816;DHT22;32787;53.316;8.670;2023-10-31T00:59:00;11.70;97.40
46816;DHT22;32787;53.316;8.670;2023-10-31T01:01:26;11.60;97.40
46816;DHT22;32787;53.316;8.670;2023-10-31T01:03:51;11.60;97.40
46816;DHT22;32787;53.316;8.670;2023-10-31T01:06:17;11.70;97.40
46816;DHT22;32787;53.316;8.670;2023-10-31T01:08:42;11.70;97.40
46816;DHT22;32787;53.316;8.670;2023-10-31T01:11:08;11.70;97.40
46816;DHT22;32787;53.316;8.670;2023-10-31T01:13:34;11.80;97.40
46816;DHT22;32787;53.316;8.670;2023-10-31T01:15:59;11.80;97.40
46816;DHT22;32787;53.316;8.670;2023-10-31T01:18:25;11.70;97.40
46816;DHT22;32787;53.316;8.670;2023-10-31T01:20:51;11.70;97.40
46816;DHT22;32787;53.316;8.670;2023-10-31T01:23:17;11.70;97.40
46816;DHT22;32787;53.316;8.670;2023-10-31T01:25:42;11.70;97.40
46816;DHT22;32787;53.316;8.670;2023-10-31T01:28:08;11.80;97.40
46816;DHT22;32787;53.316;8.670;2023-10-31T01:30:34;11.80;97.40
46816;DHT22;32787;53.316;8.670;2023-10-31T01:32:59;11.80;97.40
46816;DHT22;32787;53.316;8.670;2023-10-31T01:35:25;11.80;97.40
46816;DHT22;32787;53.316;8.670;2023-10-31T01:37:50;11.80;97.40
46816;DHT22;32787;53.316;8.670;2023-10-31T01:40:16;11.80;97.40
46816;DHT22;32787;53.316;8.670;2023-10-31T01:42:41;11.80;97.40
46816;DHT22;32787;53.316;8.670;2023-10-31T01:45:08;11.80;97.40
46816;DHT22;32787;53.316;8.670;2023-10-31T01:47:34;11.80;97.40
46816;DHT22;32787;53.316;8.670;2023-10-31T01:50:00;11.80;97.40
46816;DHT22;32787;53.316;8.670;2023-10-31T01:52:26;11.80;97.40
46816;DHT22;32787;53.316;8.670;2023-10-31T01:54:52;11.80;97.40
46816;DHT22;32787;53.316;8.670;2023-10-31T01:57:21;11.80;97.40
46816;DHT22;32787;53.316;8.670;2023-10-31T01:59:47;11.80;97.40
46816;DHT22;32787;53.316;8.670;2023-10-31T02:02:13;11.80;97.40
46816;DHT22;32787;53.316;8.670;2023-10-31T02:04:39;11.80;97.40
46816;DHT22;32787;53.316;8.670;2023-10-31T02:07:05;11.80;97.40
46816;DHT22;32787;53.316;8.670;2023-10-31T02:09:32;11.80;97.40
46816;DHT22;32787;53.316;8.670;2023-10-31T02:11:58;11.80;97.40
46816;DHT22;32787;53.316;8.670;2023-10-31T02:14:24;11.80;97.40
46816;DHT22;32787;53.316;8.670;2023-10-31T02:16:49;11.80;97.40
46816;DHT22;32787;53.316;8.670;2023-10-31T02:19:19;11.70;97.40
46816;DHT22;32787;53.316;8.670;2023-10-31T02:21:45;11.70;97.50
46816;DHT22;32787;53.316;8.670;2023-10-31T02:24:11;11.70;97.50
46816;DHT22;32787;53.316;8.670;2023-10-31T02:26:36;11.80;97.50
46816;DHT22;32787;53.316;8.670;2023-10-31T02:29:03;11.80;97.40
46816;DHT22;32787;53.316;8.670;2023-10-31T02:31:29;11.80;97.40
46816;DHT22;32787;53.316;8.670;2023-10-31T02:33:55;11.80;97.40
46816;DHT22;32787;53.316;8.670;2023-10-31T02:36:21;11.80;97.40
46816;DHT22;32787;53.316;8.670;2023-10-31T02:38:47;11.90;97.50
46816;DHT22;32787;53.316;8.670;2023-10-31T02:41:13;11.90;97.40
46816;DHT22;32787;53.316;8.670;2023-10-31T02:43:41;11.90;97.40
46816;DHT22;32787;53.316;8.670;2023-10-31T02:46:06;11.90;97.30
46816;DHT22;32787;53.316;8.670;2023-10-31T02:48:32;11.90;97.40
46816;DHT22;32787;53.316;8.670;2023-10-31T02:51:05;11.90;97.30
46816;DHT22;32787;53.316;8.670;2023-10-31T02:53:31;11.90;97.30
46816;DHT22;32787;53.316;8.670;2023-10-31T02:55:56;11.90;97.40
46816;DHT22;32787;53.316;8.670;2023-10-31T02:58:22;11.90;97.40
46816;DHT22;32787;53.316;8.670;2023-10-31T03:00:47;11.90;97.40
46816;DHT22;32787;53.316;8.670;2023-10-31T03:03:13;11.90;97.30
46816;DHT22;32787;53.316;8.670;2023-10-31T03:05:39;11.90;97.30
46816;DHT22;32787;53.316;8.670;2023-10-31T03:08:04;11.90;97.30
46816;DHT22;32787;53.316;8.670;2023-10-31T03:10:30;11.90;97.30
46816;DHT22;32787;53.316;8.670;2023-10-31T03:12:56;11.90;97.20
46816;DHT22;32787;53.316;8.670;2023-10-31T03:15:21;12.00;97.20
46816;DHT22;32787;53.316;8.670;2023-10-31T03:17:47;11.90;97.20
46816;DHT22;32787;53.316;8.670;2023-10-31T03:20:12;11.90;97.20
46816;DHT22;32787;53.316;8.670;2023-10-31T03:22:38;11.90;97.20
46816;DHT22;32787;53.316;8.670;2023-10-31T03:25:04;11.90;97.20
46816;DHT22;32787;53.316;8.670;2023-10-31T03:27:30;11.90;97.20
46816;DHT22;32787;53.316;8.670;2023-10-31T03:29:55;11.90;97.20
46816;DHT22;32787;53.316;8.670;2023-10-31T03:32:21;11.90;97.20
46816;DHT22;32787;53.316;8.670;2023-10-31T03:34:47;11.90;97.20
46816;DHT22;32787;53.316;8.670;2023-10-31T03:37:12;11.90;97.20
46816;DHT22;32787;53.316;8.670;2023-10-31T03:39:38;11.90;97.20
46816;DHT22;32787;53.316;8.670;2023-10-31T03:42:03;11.90;97.20
46816;DHT22;32787;53.316;8.670;2023-10-31T03:44:30;11.90;97.20
46816;DHT22;32787;53.316;8.670;2023-10-31T03:46:56;11.90;97.20
46816;DHT22;32787;53.316;8.670;2023-10-31T03:49:22;11.90;97.20
46816;DHT22;32787;53.316;8.670;2023-10-31T03:51:47;12.00;97.30
46816;DHT22;32787;53.316;8.670;2023-10-31T03:54:14;12.00;97.20
46816;DHT22;32787;53.316;8.670;2023-10-31T03:56:43;11.90;97.20
46816;DHT22;32787;53.316;8.670;2023-10-31T03:59:09;12.00;97.20
46816;DHT22;32787;53.316;8.670;2023-10-31T04:01:35;11.90;97.30
46816;DHT22;32787;53.316;8.670;2023-10-31T04:04:01;11.90;97.30
46816;DHT22;32787;53.316;8.670;2023-10-31T04:06:26;11.90;97.30
46816;DHT22;32787;53.316;8.670;2023-10-31T04:08:52;11.90;97.30
46816;DHT22;32787;53.316;8.670;2023-10-31T04:11:18;11.90;97.30
46816;DHT22;32787;53.316;8.670;2023-10-31T04:13:43;11.90;97.40
46816;DHT22;32787;53.316;8.670;2023-10-31T04:16:09;11.90;97.40
46816;DHT22;32787;53.316;8.670;2023-10-31T04:18:36;11.90;97.40
46816;DHT22;32787;53.316;8.670;2023-10-31T04:21:01;11.90;97.40
46816;DHT22;32787;53.316;8.670;2023-10-31T04:23:27;11.90;97.40
46816;DHT22;32787;53.316;8.670;2023-10-31T04:25:53;11.90;97.30
46816;DHT22;32787;53.316;8.670;2023-10-31T04:28:18;11.90;97.30
46816;DHT22;32787;53.316;8.670;2023-10-31T04:30:44;11.90;97.40
46816;DHT22;32787;53.316;8.670;2023-10-31T04:33:10;11.90;97.40
46816;DHT22;32787;53.316;8.670;2023-10-31T04:35:35;11.90;97.40
46816;DHT22;32787;53.316;8.670;2023-10-31T04:38:01;11.90;97.40
46816;DHT22;32787;53.316;8.670;2023-10-31T04:40:27;11.90;97.40
46816;DHT22;32787;53.316;8.670;2023-10-31T04:42:53;11.90;97.40
46816;DHT22;32787;53.316;8.670;2023-10-31T04:45:19;11.90;97.40
46816;DHT22;32787;53.316;8.670;2023-10-31T04:47:45;11.90;97.40
46816;DHT22;32787;53.316;8.670;2023-10-31T04:50:10;11.90;97.40
46816;DHT22;32787;53.316;8.670;2023-10-31T04:52:36;11.80;97.40
46816;DHT22;32787;53.316;8.670;2023-10-31T04:55:02;11.80;97.50
46816;DHT22;32787;53.316;8.670;2023-10-31T04:57:27;11.80;97.50
46816;DHT22;32787;53.316;8.670;2023-10-31T04:59:53;11.80;97.50
46816;DHT22;32787;53.316;8.670;2023-10-31T05:02:23;11.90;97.50
46816;DHT22;32787;53.316;8.670;2023-10-31T05:04:48;11.90;97.50
46816;DHT22;32787;53.316;8.670;2023-10-31T05:07:18;11.90;97.50
46816;DHT22;32787;53.316;8.670;2023-10-31T05:09:43;11.80;97.50
46816;DHT22;32787;53.316;8.670;2023-10-31T05:12:09;11.80;97.50
46816;DHT22;32787;53.316;8.670;2023-10-31T05:14:35;11.80;97.60
46816;DHT22;32787;53.316;8.670;2023-10-31T05:17:00;11.90;97.60
46816;DHT22;32787;53.316;8.670;2023-10-31T05:19:26;11.90;97.60
46816;DHT22;32787;53.316;8.670;2023-10-31T05:21:51;11.90;97.70
46816;DHT22;32787;53.316;8.670;2023-10-31T05:24:17;11.90;97.70
46816;DHT22;32787;53.316;8.670;2023-10-31T05:26:43;11.90;97.80
46816;DHT22;32787;53.316;8.670;2023-10-31T05:29:10;11.90;97.80
46816;DHT22;32787;53.316;8.670;2023-10-31T05:31:35;11.90;97.80
46816;DHT22;32787;53.316;8.670;2023-10-31T05:34:01;11.90;97.80
46816;DHT22;32787;53.316;8.670;2023-10-31T05:36:29;11.90;97.80
46816;DHT22;32787;53.316;8.670;2023-10-31T05:38:54;11.90;97.90
46816;DHT22;32787;53.316;8.670;2023-10-31T05:41:20;11.90;97.90
46816;DHT22;32787;53.316;8.670;2023-10-31T05:43:45;11.90;97.90
46816;DHT22;32787;53.316;8.670;2023-10-31T05:46:11;11.90;98.00
46816;DHT22;32787;53.316;8.670;2023-10-31T05:48:43;12.10;98.00
46816;DHT22;32787;53.316;8.670;2023-10-31T05:51:13;12.20;98.10
46816;DHT22;32787;53.316;8.670;2023-10-31T05:53:40;12.10;98.00
46816;DHT22;32787;53.316;8.670;2023-10-31T05:56:06;12.10;98.00
46816;DHT22;32787;53.316;8.670;2023-10-31T05:58:33;12.10;98.00
46816;DHT22;32787;53.316;8.670;2023-10-31T06:00:58;12.10;98.10
46816;DHT22;32787;53.316;8.670;2023-10-31T06:03:24;12.20;98.10
46816;DHT22;32787;53.316;8.670;2023-10-31T06:05:50;12.00;98.10
46816;DHT22;32787;53.316;8.670;2023-10-31T06:08:15;11.80;97.90
46816;DHT22;32787;53.316;8.670;2023-10-31T06:10:41;11.50;97.90
46816;DHT22;32787;53.316;8.670;2023-10-31T06:13:06;11.30;97.90
46816;DHT22;32787;53.316;8.670;2023-10-31T06:15:32;11.00;97.90
46816;DHT22;32787;53.316;8.670;2023-10-31T06:17:58;11.00;97.90
46816;DHT22;32787;53.316;8.670;2023-10-31T06:20:23;10.90;97.90
46816;DHT22;32787;53.316;8.670;2023-10-31T06:22:49;10.70;97.90
46816;DHT22;32787;53.316;8.670;2023-10-31T06:25:15;10.60;97.90
46816;DHT22;32787;53.316;8.670;2023-10-31T06:27:40;10.60;97.90
46816;DHT22;32787;53.316;8.670;2023-10-31T06:30:06;10.50;97.90
46816;DHT22;32787;53.316;8.670;2023-10-31T06:32:32;10.50;97.80
46816;DHT22;32787;53.316;8.670;2023-10-31T06:34:58;10.40;97.80
46816;DHT22;32787;53.316;8.670;2023-10-31T06:37:23;10.30;97.80
46816;DHT22;32787;53.316;8.670;2023-10-31T06:39:49;10.40;97.80
46816;DHT22;32787;53.316;8.670;2023-10-31T06:42:14;10.50;97.80
46816;DHT22;32787;53.316;8.670;2023-10-31T06:44:40;10.50;97.80
46816;DHT22;32787;53.316;8.670;2023-10-31T06:47:06;10.30;97.70
46816;DHT22;32787;53.316;8.670;2023-10-31T06:49:31;10.40;97.70
46816;DHT22;32787;53.316;8.670;2023-10-31T06:51:57;10.40;97.60
46816;DHT22;32787;53.316;8.670;2023-10-31T06:54:22;10.30;97.60
46816;DHT22;32787;53.316;8.670;2023-10-31T06:56:48;10.20;97.40
46816;DHT22;32787;53.316;8.670;2023-10-31T06:59:13;10.30;97.60
46816;DHT22;32787;53.316;8.670;2023-10-31T07:01:39;10.30;97.50
46816;DHT22;32787;53.316;8.670;2023-10-31T07:04:05;10.30;97.50
46816;DHT22;32787;53.316;8.670;2023-10-31T07:06:30;10.20;97.50
46816;DHT22;32787;53.316;8.670;2023-10-31T07:08:56;10.20;97.60
46816;DHT22;32787;53.316;8.670;2023-10-31T07:11:22;10.20;97.50
46816;DHT22;32787;53.316;8.670;2023-10-31T07:13:48;10.20;97.60
46816;DHT22;32787;53.316;8.670;2023-10-31T07:16:14;10.10;97.60
46816;DHT22;32787;53.316;8.670;2023-10-31T07:18:39;10.20;97.70
46816;DHT22;32787;53.316;8.670;2023-10-31T07:21:05;10.20;97.70
46816;DHT22;32787;53.316;8.670;2023-10-31T07:23:31;10.30;97.70
46816;DHT22;32787;53.316;8.670;2023-10-31T07:25:57;10.20;97.50
46816;DHT22;32787;53.316;8.670;2023-10-31T07:28:22;10.20;97.60
46816;DHT22;32787;53.316;8.670;2023-10-31T07:30:48;10.10;97.50
46816;DHT22;32787;53.316;8.670;2023-10-31T07:33:15;10.10;97.50
46816;DHT22;32787;53.316;8.670;2023-10-31T07:35:41;10.20;97.50
46816;DHT22;32787;53.316;8.670;2023-10-31T07:38:06;10.10;97.60
46816;DHT22;32787;53.316;8.670;2023-10-31T07:40:33;10.10;97.60
46816;DHT22;32787;53.316;8.670;2023-10-31T07:42:58;10.00;97.70
46816;DHT22;32787;53.316;8.670;2023-10-31T07:45:24;10.00;97.70
46816;DHT22;32787;53.316;8.670;2023-10-31T07:47:50;10.10;97.70
46816;DHT22;32787;53.316;8.670;2023-10-31T07:50:15;10.00;97.60
46816;DHT22;32787;53.316;8.670;2023-10-31T07:52:41;9.80;97.60
46816;DHT22;32787;53.316;8.670;2023-10-31T07:55:09;9.80;97.70
46816;DHT22;32787;53.316;8.670;2023-10-31T07:57:36;9.90;97.60
46816;DHT22;32787;53.316;8.670;2023-10-31T08:00:02;9.90;97.60
46816;DHT22;32787;53.316;8.670;2023-10-31T08:02:28;9.90;97.50
46816;DHT22;32787;53.316;8.670;2023-10-31T08:04:54;9.90;97.40
46816;DHT22;32787;53.316;8.670;2023-10-31T08:07:19;9.80;97.40
46816;DHT22;32787;53.316;8.670;2023-10-31T08:09:45;9.90;97.30
46816;DHT22;32787;53.316;8.670;2023-10-31T08:12:10;9.90;97.30
46816;DHT22;32787;53.316;8.670;2023-10-31T08:14:36;9.90;97.30
46816;DHT22;32787;53.316;8.670;2023-10-31T08:17:02;10.00;97.30
46816;DHT22;32787;53.316;8.670;2023-10-31T08:19:27;10.00;97.40
46816;DHT22;32787;53.316;8.670;2023-10-31T08:21:53;9.90;97.30
46816;DHT22;32787;53.316;8.670;2023-10-31T08:24:19;9.90;97.40
46816;DHT22;32787;53.316;8.670;2023-10-31T08:26:44;9.90;97.40
46816;DHT22;32787;53.316;8.670;2023-10-31T08:29:10;9.90;97.40
46816;DHT22;32787;53.316;8.670;2023-10-31T08:31:35;10.00;97.30
46816;DHT22;32787;53.316;8.670;2023-10-31T08:34:01;10.10;97.40
46816;DHT22;32787;53.316;8.670;2023-10-31T08:36:26;10.00;97.40
46816;DHT22;32787;53.316;8.670;2023-10-31T08:38:52;10.00;97.30
46816;DHT22;32787;53.316;8.670;2023-10-31T08:41:18;10.10;97.40
46816;DHT22;32787;53.316;8.670;2023-10-31T08:43:46;10.10;97.50
46816;DHT22;32787;53.316;8.670;2023-10-31T08:46:12;10.10;97.50
46816;DHT22;32787;53.316;8.670;2023-10-31T08:48:38;10.10;97.40
46816;DHT22;32787;53.316;8.670;2023-10-31T08:51:04;10.00;97.40
46816;DHT22;32787;53.316;8.670;2023-10-31T08:53:29;10.10;97.40
46816;DHT22;32787;53.316;8.670;2023-10-31T08:55:55;10.10;97.30
46816;DHT22;32787;53.316;8.670;2023-10-31T08:58:22;10.10;97.40
46816;DHT22;32787;53.316;8.670;2023-10-31T09:00:47;10.20;97.40
46816;DHT22;32787;53.316;8.670;2023-10-31T09:03:13;10.30;97.40
46816;DHT22;32787;53.316;8.670;2023-10-31T09:05:40;10.30;97.40
46816;DHT22;32787;53.316;8.670;2023-10-31T09:08:05;10.10;97.30
46816;DHT22;32787;53.316;8.670;2023-10-31T09:10:33;10.20;97.30
46816;DHT22;32787;53.316;8.670;2023-10-31T09:12:59;10.10;97.30
46816;DHT22;32787;53.316;8.670;2023-10-31T09:15:25;10.10;97.30
46816;DHT22;32787;53.316;8.670;2023-10-31T09:17:51;10.10;97.30
46816;DHT22;32787;53.316;8.670;2023-10-31T09:20:16;10.20;97.30
46816;DHT22;32787;53.316;8.670;2023-10-31T09:22:42;10.20;97.30
46816;DHT22;32787;53.316;8.670;2023-10-31T09:25:07;10.20;97.30
46816;DHT22;32787;53.316;8.670;2023-10-31T09:27:33;10.30;97.30
46816;DHT22;32787;53.316;8.670;2023-10-31T09:29:59;10.30;97.20
46816;DHT22;32787;53.316;8.670;2023-10-31T09:32:24;10.30;97.20
46816;DHT22;32787;53.316;8.670;2023-10-31T09:34:50;10.20;97.20
46816;DHT22;32787;53.316;8.670;2023-10-31T09:37:15;10.30;97.20
46816;DHT22;32787;53.316;8.670;2023-10-31T09:39:41;10.20;97.30
46816;DHT22;32787;53.316;8.670;2023-10-31T09:42:07;10.30;97.30
46816;DHT22;32787;53.316;8.670;2023-10-31T09:44:33;10.30;97.30
46816;DHT22;32787;53.316;8.670;2023-10-31T09:47:00;10.30;97.30
46816;DHT22;32787;53.316;8.670;2023-10-31T09:49:26;10.40;97.30
46816;DHT22;32787;53.316;8.670;2023-10-31T09:51:53;10.50;97.40
46816;DHT22;32787;53.316;8.670;2023-10-31T09:54:19;10.40;97.30
46816;DHT22;32787;53.316;8.670;2023-10-31T09:56:45;10.40;97.30
46816;DHT22;32787;53.316;8.670;2023-10-31T09:59:14;10.50;97.40
46816;DHT22;32787;53.316;8.670;2023-10-31T10:01:41;10.50;97.40
46816;DHT22;32787;53.316;8.670;2023-10-31T10:04:07;10.60;97.40
46816;DHT22;32787;53.316;8.670;2023-10-31T10:06:33;10.60;97.50
46816;DHT22;32787;53.316;8.670;2023-10-31T10:08:59;10.50;97.40
46816;DHT22;32787;53.316;8.670;2023-10-31T10:11:24;10.60;97.50
46816;DHT22;32787;53.316;8.670;2023-10-31T10:13:53;10.60;97.50
46816;DHT22;32787;53.316;8.670;2023-10-31T10:16:32;10.70;97.50
46816;DHT22;32787;53.316;8.670;2023-10-31T10:19:20;10.60;97.50
46816;DHT22;32787;53.316;8.670;2023-10-31T10:21:57;10.70;97.50
46816;DHT22;32787;53.316;8.670;2023-10-31T10:24:24;10.90;97.60
46816;DHT22;32787;53.316;8.670;2023-10-31T10:26:51;11.00;97.60
46816;DHT22;32787;53.316;8.670;2023-10-31T10:29:17;11.00;97.60
46816;DHT22;32787;53.316;8.670;2023-10-31T10:31:43;11.10;97.60
46816;DHT22;32787;53.316;8.670;2023-10-31T10:34:10;11.10;97.50
46816;DHT22;32787;53.316;8.670;2023-10-31T10:36:38;11.10;97.50
46816;DHT22;32787;53.316;8.670;2023-10-31T10:39:06;11.10;97.40
46816;DHT22;32787;53.316;8.670;2023-10-31T10:41:34;11.20;97.40
46816;DHT22;32787;53.316;8.670;2023-10-31T10:44:07;11.30;97.50
46816;DHT22;32787;53.316;8.670;2023-10-31T10:46:34;11.20;97.30
46816;DHT22;32787;53.316;8.670;2023-10-31T10:49:04;11.20;97.40
46816;DHT22;32787;53.316;8.670;2023-10-31T10:54:11;11.10;97.10
46816;DHT22;32787;53.316;8.670;2023-10-31T10:56:45;11.20;97.20
46816;DHT22;32787;53.316;8.670;2023-10-31T10:59:19;11.20;97.10
46816;DHT22;32787;53.316;8.670;2023-10-31T11:01:46;11.20;97.10
46816;DHT22;32787;53.316;8.670;2023-10-31T11:04:13;11.30;97.10
46816;DHT22;32787;53.316;8.670;2023-10-31T11:06:39;11.40;97.00
46816;DHT22;32787;53.316;8.670;2023-10-31T11:09:05;11.30;96.90
46816;DHT22;32787;53.316;8.670;2023-10-31T11:11:32;11.40;97.00
46816;DHT22;32787;53.316;8.670;2023-10-31T11:13:58;11.60;97.10
46816;DHT22;32787;53.316;8.670;2023-10-31T11:16:34;11.70;96.90
46816;DHT22;32787;53.316;8.670;2023-10-31T11:19:03;11.80;96.90
46816;DHT22;32787;53.316;8.670;2023-10-31T11:21:29;11.90;96.60
46816;DHT22;32787;53.316;8.670;2023-10-31T11:23:58;11.90;96.60
46816;DHT22;32787;53.316;8.670;2023-10-31T11:26:30;11.90;96.30
46816;DHT22;32787;53.316;8.670;2023-10-31T11:29:10;11.90;96.10
46816;DHT22;32787;53.316;8.670;2023-10-31T11:31:37;12.10;96.20
46816;DHT22;32787;53.316;8.670;2023-10-31T11:34:03;12.10;96.10
46816;DHT22;32787;53.316;8.670;2023-10-31T11:36:32;12.10;96.00
46816;DHT22;32787;53.316;8.670;2023-10-31T11:39:11;12.20;95.80
46816;DHT22;32787;53.316;8.670;2023-10-31T11:41:40;12.10;95.50
46816;DHT22;32787;53.316;8.670;2023-10-31T11:44:05;12.00;95.30
46816;DHT22;32787;53.316;8.670;2023-10-31T11:46:31;11.90;95.60
46816;DHT22;32787;53.316;8.670;2023-10-31T11:48:57;12.00;95.70
46816;DHT22;32787;53.316;8.670;2023-10-31T11:51:26;12.00;95.60
46816;DHT22;32787;53.316;8.670;2023-10-31T11:53:52;12.10;95.50
46816;DHT22;32787;53.316;8.670;2023-10-31T11:56:18;12.20;95.70
46816;DHT22;32787;53.316;8.670;2023-10-31T11:58:44;12.20;95.40
46816;DHT22;32787;53.316;8.670;2023-10-31T12:01:10;12.00;95.00
46816;DHT22;32787;53.316;8.670;2023-10-31T12:03:41;11.90;94.90
46816;DHT22;32787;53.316;8.670;2023-10-31T12:06:08;11.90;95.20
46816;DHT22;32787;53.316;8.670;2023-10-31T12:08:38;11.60;94.90
46816;DHT22;32787;53.316;8.670;2023-10-31T12:13:30;11.40;94.70
46816;DHT22;32787;53.316;8.670;2023-10-31T12:15:55;11.10;94.70
46816;DHT22;32787;53.316;8.670;2023-10-31T12:18:23;10.90;94.60
46816;DHT22;32787;53.316;8.670;2023-10-31T12:20:50;10.80;94.50
46816;DHT22;32787;53.316;8.670;2023-10-31T12:23:17;10.60;94.80
46816;DHT22;32787;53.316;8.670;2023-10-31T12:25:53;10.60;94.70
46816;DHT22;32787;53.316;8.670;2023-10-31T12:28:23;10.20;94.70
46816;DHT22;32787;53.316;8.670;2023-10-31T12:30:50;10.10;94.70
46816;DHT22;32787;53.316;8.670;2023-10-31T12:33:16;10.10;94.90
46816;DHT22;32787;53.316;8.670;2023-10-31T12:35:43;10.00;95.10
46816;DHT22;32787;53.316;8.670;2023-10-31T12:38:13;10.10;95.00
46816;DHT22;32787;53.316;8.670;2023-10-31T12:40:43;10.10;95.20
46816;DHT22;32787;53.316;8.670;2023-10-31T12:43:10;10.20;95.20
46816;DHT22;32787;53.316;8.670;2023-10-31T12:45:36;10.10;94.90
46816;DHT22;32787;53.316;8.670;2023-10-31T12:48:09;10.00;95.10
46816;DHT22;32787;53.316;8.670;2023-10-31T12:50:37;9.80;95.20
46816;DHT22;32787;53.316;8.670;2023-10-31T12:53:03;10.00;95.50
46816;DHT22;32787;53.316;8.670;2023-10-31T12:55:30;9.90;95.20
46816;DHT22;32787;53.316;8.670;2023-10-31T12:57:57;10.00;95.10
46816;DHT22;32787;53.316;8.670;2023-10-31T13:00:31;9.80;95.00
46816;DHT22;32787;53.316;8.670;2023-10-31T13:03:05;9.80;95.20
46816;DHT22;32787;53.316;8.670;2023-10-31T13:05:31;9.80;95.10
46816;DHT22;32787;53.316;8.670;2023-10-31T13:07:58;9.60;95.20
46816;DHT22;32787;53.316;8.670;2023-10-31T13:10:27;9.70;95.20
46816;DHT22;32787;53.316;8.670;2023-10-31T13:12:58;9.70;95.10
46816;DHT22;32787;53.316;8.670;2023-10-31T13:15:24;9.70;95.10
46816;DHT22;32787;53.316;8.670;2023-10-31T13:17:50;9.70;95.30
46816;DHT22;32787;53.316;8.670;2023-10-31T13:20:18;9.60;95.00
46816;DHT22;32787;53.316;8.670;2023-10-31T13:22:44;9.60;95.00
46816;DHT22;32787;53.316;8.670;2023-10-31T13:25:12;9.50;94.90
46816;DHT22;32787;53.316;8.670;2023-10-31T13:27:42;9.50;95.00
46816;DHT22;32787;53.316;8.670;2023-10-31T13:30:11;9.50;94.90
46816;DHT22;32787;53.316;8.670;2023-10-31T13:32:38;9.40;94.60
46816;DHT22;32787;53.316;8.670;2023-10-31T13:35:05;9.40;94.50
46816;DHT22;32787;53.316;8.670;2023-10-31T13:37:30;9.50;94.90
46816;DHT22;32787;53.316;8.670;2023-10-31T13:39:56;9.60;95.10
46816;DHT22;32787;53.316;8.670;2023-10-31T13:42:22;9.60;95.00
46816;DHT22;32787;53.316;8.670;2023-10-31T13:44:47;9.70;94.90
46816;DHT22;32787;53.316;8.670;2023-10-31T13:47:14;9.80;94.80
46816;DHT22;32787;53.316;8.670;2023-10-31T13:49:39;9.90;94.60
46816;DHT22;32787;53.316;8.670;2023-10-31T13:52:05;9.80;94.40
46816;DHT22;32787;53.316;8.670;2023-10-31T13:54:34;9.50;94.20
46816;DHT22;32787;53.316;8.670;2023-10-31T13:57:00;9.50;94.60
46816;DHT22;32787;53.316;8.670;2023-10-31T13:59:26;9.60;94.80
46816;DHT22;32787;53.316;8.670;2023-10-31T14:01:52;9.50;94.70
46816;DHT22;32787;53.316;8.670;2023-10-31T14:04:19;9.40;94.50
46816;DHT22;32787;53.316;8.670;2023-10-31T14:06:45;9.50;94.70
46816;DHT22;32787;53.316;8.670;2023-10-31T14:09:12;9.40;94.70
46816;DHT22;32787;53.316;8.670;2023-10-31T14:11:38;9.30;94.50
46816;DHT22;32787;53.316;8.670;2023-10-31T14:14:04;9.10;94.50
46816;DHT22;32787;53.316;8.670;2023-10-31T14:16:42;9.00;94.40
46816;DHT22;32787;53.316;8.670;2023-10-31T14:19:10;8.90;94.60
46816;DHT22;32787;53.316;8.670;2023-10-31T14:21:37;8.90;94.80
46816;DHT22;32787;53.316;8.670;2023-10-31T14:24:03;9.10;94.70
46816;DHT22;32787;53.316;8.670;2023-10-31T14:26:29;9.00;94.70
46816;DHT22;32787;53.316;8.670;2023-10-31T14:28:56;9.10;94.80
46816;DHT22;32787;53.316;8.670;2023-10-31T14:31:21;9.00;94.80
46816;DHT22;32787;53.316;8.670;2023-10-31T14:33:47;9.10;94.50
46816;DHT22;32787;53.316;8.670;2023-10-31T14:36:13;9.10;94.40
46816;DHT22;32787;53.316;8.670;2023-10-31T14:38:39;8.90;94.10
46816;DHT22;32787;53.316;8.670;2023-10-31T14:41:06;9.00;94.40
46816;DHT22;32787;53.316;8.670;2023-10-31T14:43:33;9.10;93.70
46816;DHT22;32787;53.316;8.670;2023-10-31T14:45:58;8.90;93.40
46816;DHT22;32787;53.316;8.670;2023-10-31T14:48:24;8.60;93.60
46816;DHT22;32787;53.316;8.670;2023-10-31T14:50:50;8.40;93.90
46816;DHT22;32787;53.316;8.670;2023-10-31T14:53:16;8.40;94.30
46816;DHT22;32787;53.316;8.670;2023-10-31T14:55:42;8.30;94.40
46816;DHT22;32787;53.316;8.670;2023-10-31T14:58:08;8.30;94.50
46816;DHT22;32787;53.316;8.670;2023-10-31T15:00:36;8.20;94.70
46816;DHT22;32787;53.316;8.670;2023-10-31T15:03:03;8.30;95.00
46816;DHT22;32787;53.316;8.670;2023-10-31T15:05:29;8.30;94.70
46816;DHT22;32787;53.316;8.670;2023-10-31T15:07:55;8.30;94.80
46816;DHT22;32787;53.316;8.670;2023-10-31T15:10:21;8.40;94.80
46816;DHT22;32787;53.316;8.670;2023-10-31T15:12:48;8.30;94.80
46816;DHT22;32787;53.316;8.670;2023-10-31T15:15:16;8.30;95.00
46816;DHT22;32787;53.316;8.670;2023-10-31T15:17:42;8.40;95.00
46816;DHT22;32787;53.316;8.670;2023-10-31T15:20:08;8.60;95.20
46816;DHT22;32787;53.316;8.670;2023-10-31T15:22:41;8.60;94.80
46816;DHT22;32787;53.316;8.670;2023-10-31T15:25:11;8.40;94.60
46816;DHT22;32787;53.316;8.670;2023-10-31T15:27:37;8.40;94.70
46816;DHT22;32787;53.316;8.670;2023-10-31T15:30:06;8.40;94.50
46816;DHT22;32787;53.316;8.670;2023-10-31T15:32:31;8.30;94.50
46816;DHT22;32787;53.316;8.670;2023-10-31T15:34:59;8.20;94.60